• Join FlightAware (Why Join?)
  • Login
  • US Flag 
05:48PM EDT


 

Airport Tracker/Info


-or-


 

Live Flight TrackerFlight Track Log ✈ JBU51 ✈ 23-Jun-2014 ✈ KBOS - KMCO

Flight Track Log - Related Links

Times and Time Zones

All times are in EDT time to prevent confusion due to time zone crossing. See the JBU51 flight status page for this flight to view local times or setup timezone preferences in your user account.

Time Position Orientation Groundspeed Altitude Reporting Facility
EDT Latitude Longitude Course Direction KTS MPH feet Rate Location/Type
06:21AM 42.3667 -70.9833 200° South 159 183 700  Level KA90
06:22AM 42.3667 -70.9333 90° East 156 180 2,000 1,620 Climbing KA90
06:23AM 42.3725 -70.9019 76° East 175 201 2,800 2,220 Climbing Boston Center
06:24AM 42.3844 -70.8031 81° East 250 288 5,600 1,980 Climbing Boston Center
06:25AM 42.2060 -70.6363 160° South  Level FlightAware Approximate
06:25AM 42.3411 -70.7294 129° Southeast 275 316 6,900  Level Boston Center
06:26AM 42.0924 -70.6205 200° South  Level FlightAware Approximate
06:26AM 42.2611 -70.7317 181° South 283 326 9,500  Level Boston Center
06:27AM 41.9789 -70.6773 200° South  Level FlightAware Approximate
06:27AM 42.1750 -70.7342 181° South 297 342 11,300  Level Boston Center
06:28AM 42.0722 -70.7397 182° South 362 417 13,500 1,920 Climbing Boston Center
06:33AM 41.5767 -71.1016 230° Southwest 428 493 23,600 1,860 Climbing FlightAware ADS-B (KASH)
06:34AM 41.5278 -71.1744 226° Southwest 439 505 24,500 1,320 Climbing FlightAware ADS-B (KASH)
06:35AM 41.4378 -71.2875 224° Southwest 444 511 25,800 1,320 Climbing FlightAware ADS-B (KASH)
06:35AM 41.3694 -71.3734 224° Southwest 447 514 26,900 1,200 Climbing FlightAware ADS-B (KASH)
06:38AM 41.2099 -71.5724 223° Southwest 471 542 30,500 1,140 Climbing FlightAware ADS-B (KSNC)
06:42AM 40.7639 -72.1221 223° Southwest 464 534 34,600 1,140 Climbing FlightAware ADS-B (KSNC)
06:43AM 40.6808 -72.2235 223° Southwest 462 532 35,500 780 Climbing FlightAware ADS-B (KSNC)
06:44AM 40.5873 -72.3368 223° Southwest 452 520 36,000 300 Climbing FlightAware ADS-B (KSNC)
06:44AM 40.5430 -72.3905 223° Southwest 455 524 36,000  Level FlightAware ADS-B (KSNC)
06:45AM 40.4716 -72.4769 223° Southwest 461 531 36,000  Level FlightAware ADS-B (KSNC)
06:46AM 40.3960 -72.5673 223° Southwest 460 529 36,000  Level FlightAware ADS-B (KSNC)
06:46AM 40.3453 -72.6284 223° Southwest 459 528 36,000  Level FlightAware ADS-B (KSNC)
06:47AM 40.2872 -72.6983 222° Southwest 461 531 36,000  Level FlightAware ADS-B (KSNC)
06:47AM 40.2328 -72.7632 222° Southwest 462 532 36,000  Level FlightAware ADS-B (KSNC)
06:48AM 40.1856 -72.8194 222° Southwest 463 533 36,000  Level FlightAware ADS-B (KSNC)
06:49AM 40.1180 -72.8997 222° Southwest 464 534 36,000  Level FlightAware ADS-B (KSNC)
06:49AM 40.0662 -72.9609 222° Southwest 467 537 36,000  Level FlightAware ADS-B (KSNC)
06:49AM 40.0481 -72.9824 223° Southwest 463 533 36,000  Level FlightAware ADS-B (KWWD)
06:50AM 39.9948 -73.0457 222° Southwest 470 541 36,000  Level FlightAware ADS-B (KSNC)
06:50AM 39.9739 -73.0705 223° Southwest 465 535 36,000  Level FlightAware ADS-B (KWWD)
06:50AM 39.9453 -73.1042 223° Southwest 466 536 36,000  Level FlightAware ADS-B (KWWD)
06:51AM 39.8887 -73.1708 222° Southwest 474 545 36,000  Level FlightAware ADS-B (KWWD)
06:52AM 39.8528 -73.2130 222° Southwest 477 549 36,000  Level FlightAware ADS-B (KSNC)
06:52AM 39.7793 -73.2941 218° Southwest 484 557 36,000  Level FlightAware ADS-B (KSNC)
06:53AM 39.7137 -73.3631 219° Southwest 485 558 36,000  Level FlightAware ADS-B (KSNC)
06:53AM 39.6874 -73.3909 219° Southwest 486 559 36,000  Level FlightAware ADS-B (KSNC)
06:54AM 39.6309 -73.4499 220° Southwest 482 555 36,000  Level FlightAware ADS-B (KWWD)
06:54AM 39.5450 -73.5393 219° Southwest 492 566 36,000  Level FlightAware ADS-B (KWWD)
06:55AM 39.4915 -73.5946 219° Southwest 493 567 36,000  Level FlightAware ADS-B (KWWD)
06:55AM 39.4352 -73.6527 219° Southwest 494 568 36,000  Level FlightAware ADS-B (KWWD)
06:56AM 39.3637 -73.7265 219° Southwest 494 568 36,000 60 Level FlightAware ADS-B (KWWD)
06:57AM 39.2921 -73.8000 219° Southwest 492 566 36,100  Climbing FlightAware ADS-B (KWWD)
06:57AM 39.2390 -73.8544 219° Southwest 491 565 36,000 -120 Descending FlightAware ADS-B (KWWD)
06:58AM 39.1849 -73.9099 219° Southwest 490 564 36,000  Level FlightAware ADS-B (KWWD)
06:58AM 39.1184 -73.9777 218° Southwest 489 563 36,000  Level FlightAware ADS-B (KWWD)
06:59AM 39.0606 -74.0366 219° Southwest 482 555 36,000  Level FlightAware ADS-B (KWWD)
06:59AM 39.0089 -74.0892 219° Southwest 481 554 36,000  Level FlightAware ADS-B (KWWD)
07:00AM 38.9369 -74.1623 219° Southwest 481 554 36,000  Level FlightAware ADS-B (KWWD)
07:01AM 38.8848 -74.2151 218° Southwest 489 563 36,000  Level FlightAware ADS-B (KWWD)
07:01AM 38.8311 -74.2694 218° Southwest 490 564 36,000  Level FlightAware ADS-B (KWWD)
07:02AM 38.7607 -74.3404 218° Southwest 492 566 36,000  Level FlightAware ADS-B (KWWD)
07:02AM 38.7058 -74.3955 218° Southwest 491 565 36,000  Level FlightAware ADS-B (KWWD)
07:03AM 38.6369 -74.4646 218° Southwest 491 565 36,000  Level FlightAware ADS-B (KWWD)
07:03AM 38.5812 -74.5203 218° Southwest 491 565 36,000  Level FlightAware ADS-B (KWWD)
07:04AM 38.5280 -74.5735 218° Southwest 491 565 36,000  Level FlightAware ADS-B (KWWD)
07:04AM 38.4606 -74.6409 218° Southwest 491 565 36,000  Level FlightAware ADS-B (KWWD)
07:06AM 38.3307 -74.7698 218° Southwest 491 565 36,000  Level FlightAware ADS-B (KWWD)
07:06AM 38.2582 -74.8415 218° Southwest 491 565 36,000  Level FlightAware ADS-B (KWWD)
07:07AM 38.2039 -74.8950 218° Southwest 490 564 36,000  Level FlightAware ADS-B (KWWD)
07:07AM 38.1496 -74.9485 218° Southwest 490 564 36,000  Level FlightAware ADS-B (KWWD)
07:08AM 38.0700 -75.0267 218° Southwest 491 565 36,000  Level FlightAware ADS-B (KWWD)
07:09AM 38.0107 -75.0851 218° Southwest 492 566 36,000  Level FlightAware ADS-B (KWWD)
07:09AM 37.9529 -75.1418 218° Southwest 492 566 36,000  Level FlightAware ADS-B (KWWD)
07:10AM 37.8888 -75.2043 218° Southwest 491 565 36,000  Level FlightAware ADS-B (KWWD)
07:10AM 37.8274 -75.2641 218° Southwest 491 565 36,000  Level FlightAware ADS-B (KWWD)
07:11AM 37.7741 -75.3160 218° Southwest 491 565 36,000  Level FlightAware ADS-B (KWWD)
07:11AM 37.7190 -75.3694 218° Southwest 493 567 36,000  Level FlightAware ADS-B (KWWD)
07:12AM 37.6466 -75.4398 218° Southwest 489 563 36,000  Level FlightAware ADS-B (KWWD)
07:13AM 37.5764 -75.5075 218° Southwest 489 563 36,000  Level FlightAware ADS-B (KWWD)
07:13AM 37.5017 -75.5796 218° Southwest 491 565 36,000  Level FlightAware ADS-B (KWWD)
07:14AM 37.4272 -75.6510 218° Southwest 490 564 36,000  Level FlightAware ADS-B (KWWD)
07:15AM 37.3525 -75.7227 218° Southwest 490 564 36,000  Level FlightAware ADS-B (KWWD)
07:15AM 37.2985 -75.7743 218° Southwest 489 563 36,000  Level FlightAware ADS-B (KWWD)
07:16AM 37.2345 -75.8354 218° Southwest 487 560 36,000  Level FlightAware ADS-B (KWWD)
07:16AM 37.1727 -75.8942 218° Southwest 486 559 36,000  Level FlightAware ADS-B (KWWD)
07:17AM 37.1167 -75.9474 218° Southwest 485 558 36,000  Level FlightAware ADS-B (KWWD)
07:17AM 37.0552 -76.0096 220° Southwest 487 560 36,000  Level FlightAware ADS-B (KWWD)
07:18AM 37.0043 -76.0636 220° Southwest 487 560 36,000  Level FlightAware ADS-B (KWWD)
07:18AM 36.9524 -76.1179 220° Southwest 487 560 36,000  Level FlightAware ADS-B (KWWD)
07:20AM 36.8116 -76.2629 220° Southwest 483 556 36,000  Level FlightAware ADS-B (KWWD)
07:20AM 36.7653 -76.3075 220° Southwest 499 574 36,000  Level Washington Center
07:21AM 36.6603 -76.4206 221° Southwest 499 574 36,000  Level Washington Center
07:22AM 36.5550 -76.5281 219° Southwest 499 574 36,000  Level Washington Center
07:23AM 36.4478 -76.6353 219° Southwest 499 574 36,000  Level Washington Center
07:24AM 36.3425 -76.7394 219° Southwest 499 574 36,000  Level Washington Center
07:25AM 36.2350 -76.8461 219° Southwest 499 574 36,000  Level Washington Center
07:26AM 36.1317 -76.9550 220° Southwest 499 574 36,000 -60 Level Washington Center
07:27AM 36.0219 -77.0583 217° Southwest 499 574 35,900  Descending Washington Center
07:28AM 35.9436 -77.1494 223° Southwest 499 574 36,000  Climbing Washington Center
07:29AM 35.8272 -77.2622 218° Southwest 489 563 36,000  Level Washington Center
07:30AM 35.7214 -77.3675 219° Southwest 489 563 36,000  Level Washington Center
07:31AM 35.6156 -77.4700 218° Southwest 494 568 36,000  Level Washington Center
07:32AM 35.5075 -77.5747 218° Southwest 494 568 36,000  Level Washington Center
07:33AM 35.4036 -77.6739 218° Southwest 494 568 36,000  Level Washington Center
07:34AM 35.2972 -77.7781 219° Southwest 494 568 36,000  Level Washington Center
07:35AM 35.1933 -77.8769 218° Southwest 494 568 36,000  Level Washington Center
07:36AM 35.0892 -77.9781 218° Southwest 489 563 36,000  Level Washington Center
07:37AM 34.9825 -78.0814 218° Southwest 489 563 36,000  Level Washington Center
07:38AM 34.8803 -78.1794 218° Southwest 479 551 36,000 -60 Level Washington Center
07:40AM 34.7119 -78.3492 220° Southwest 492 566 35,900  Descending Jacksonville Center
07:41AM 34.6169 -78.4300 215° Southwest 480 552 36,000  Climbing Jacksonville Center
07:42AM 34.5161 -78.5258 218° Southwest 475 547 36,000  Level Jacksonville Center
07:43AM 34.4072 -78.6419 221° Southwest 475 547 36,000  Level Jacksonville Center
07:44AM 34.3042 -78.7375 217° Southwest 475 547 36,000  Level Jacksonville Center
07:45AM 34.2069 -78.8275 217° Southwest 470 541 36,000  Level Jacksonville Center
07:46AM 34.1117 -78.9172 218° Southwest 458 527 36,000  Level Jacksonville Center
07:47AM 34.0247 -78.9989 218° Southwest 453 521 36,000  Level Jacksonville Center
07:48AM 33.9272 -79.0908 218° Southwest 453 521 36,000  Level Jacksonville Center
07:49AM 33.8297 -79.1775 216° Southwest 448 516 36,000  Level Jacksonville Center
07:50AM 33.7364 -79.2664 218° Southwest 443 510 36,000  Level Jacksonville Center
07:51AM 33.6367 -79.3578 217° Southwest 437 503 36,000 -60 Level Jacksonville Center
07:52AM 33.5431 -79.4436 217° Southwest 437 503 35,900  Descending Jacksonville Center
07:53AM 33.4472 -79.5322 218° Southwest 432 497 36,000  Climbing Jacksonville Center
07:54AM 33.3517 -79.6203 218° Southwest 432 497 36,000  Level Jacksonville Center
07:55AM 33.2558 -79.7083 218° Southwest 432 497 36,000 -60 Level Jacksonville Center
07:56AM 33.1597 -79.7958 217° Southwest 432 497 35,900  Descending Jacksonville Center
07:57AM 33.0639 -79.8811 217° Southwest 432 497 36,000  Climbing Jacksonville Center
07:58AM 32.9636 -79.9686 216° Southwest 438 504 36,000  Level Jacksonville Center
07:59AM 32.8633 -80.0558 216° Southwest 443 510 36,000  Level Jacksonville Center
08:00AM 32.7586 -80.1358 213° Southwest 448 516 36,000 -60 Level Jacksonville Center
08:01AM 32.6667 -80.2225 218° Southwest 448 516 35,900 -60 Descending Jacksonville Center
08:02AM 32.5747 -80.3189 221° Southwest 443 510 35,900  Level Jacksonville Center
08:03AM 32.4825 -80.4150 221° Southwest 443 510 36,000  Climbing Jacksonville Center
08:04AM 32.3986 -80.5011 221° Southwest 440 506 36,000  Level Jacksonville Center
08:05AM 32.3086 -80.5967 222° Southwest 440 506 36,000  Level Jacksonville Center
08:06AM 32.2164 -80.6900 221° Southwest 446 513 36,000  Level Jacksonville Center
08:07AM 32.1178 -80.7928 221° Southwest 446 513 36,000  Level Jacksonville Center
08:08AM 32.0314 -80.8781 220° Southwest 441 507 36,000  Level Jacksonville Center
08:09AM 31.9286 -80.9808 220° Southwest 452 520 36,000  Level Jacksonville Center
08:10AM 31.8383 -81.0756 222° Southwest 447 514 36,000  Level Jacksonville Center
08:11AM 31.7431 -81.1408 210° Southwest 442 509 36,000  Level Jacksonville Center
08:12AM 31.6053 -81.1436 181° South 434 499 36,000  Level Jacksonville Center
08:13AM 31.4822 -81.1411 179° South 439 505 36,000  Level Jacksonville Center
08:14AM 31.3736 -81.1381 179° South 439 505 36,000  Level Jacksonville Center
08:15AM 31.2358 -81.1383 180° South 450 518 36,000 -300 Level Jacksonville Center
08:16AM 31.1083 -81.1358 179° South 450 518 35,400 -780 Descending Jacksonville Center
08:17AM 30.9872 -81.1356 180° South 450 518 34,500 -780 Descending Jacksonville Center
08:18AM 30.8619 -81.1331 179° South 450 518 33,900 -300 Descending Jacksonville Center
08:19AM 30.7367 -81.1306 179° South 444 511 34,000  Climbing Jacksonville Center
08:20AM 30.6092 -81.1306 180° South 451 519 34,000  Level Jacksonville Center
08:21AM 30.4819 -81.1281 179° South 457 526 34,000 -360 Level Jacksonville Center
08:22AM 30.3544 -81.1256 179° South 457 526 33,300 -900 Descending Jacksonville Center
08:23AM 30.2292 -81.1256 180° South 457 526 32,200 -1,680 Descending Jacksonville Center
08:24AM 30.1039 -81.1231 179° South 457 526 30,000 -2,340 Descending Jacksonville Center
08:25AM 29.9767 -81.1231 180° South 457 526 27,600 -2,340 Descending Jacksonville Center
08:26AM 29.8492 -81.1231 180° South 457 526 25,400 -2,220 Descending Jacksonville Center
08:27AM 29.7261 -81.1203 179° South 452 520 23,200 -2,160 Descending Jacksonville Center
08:28AM 29.6153 -81.1175 179° South 430 495 21,100 -1,620 Descending Jacksonville Center
08:34AM 28.9970 -81.0866 172° South 303 349 11,900 -1,440 Descending FlightAware ADS-B (KMCO)
08:35AM 28.8836 -81.0675 172° South 298 343 10,700 -1,080 Descending FlightAware ADS-B (KMCO)
08:36AM 28.8056 -81.0653 207° Southwest 275 316 9,400 -1,140 Descending FlightAware ADS-B (KMCO)
08:37AM 28.7885 -81.0867 241° Southwest 262 302 9,200 -660 Descending FlightAware ADS-B (KMCO)
08:37AM 28.7803 -81.1066 251° West 250 288 9,000 -720 Descending FlightAware ADS-B (KMCO)
08:38AM 28.7747 -81.1592 266° West 238 274 8,500 -1,020 Descending FlightAware ADS-B (KMCO)
08:39AM 28.7510 -81.2273 233° Southwest 234 269 7,300 -1,380 Descending FlightAware ADS-B (KMCO)
08:39AM 28.7342 -81.2410 208° Southwest 238 274 6,700 -1,740 Descending FlightAware ADS-B (KMCO)
08:40AM 28.6943 -81.2560 196° South 240 276 5,600 -1,800 Descending FlightAware ADS-B (KMCO)
08:40AM 28.6692 -81.2637 195° South 236 272 4,900 -1,860 Descending FlightAware ADS-B (KMCO)
08:41AM 28.6061 -81.2807 193° South 225 259 3,100 -1,440 Descending FlightAware ADS-B (KMCO)
08:42AM 28.5684 -81.2926 197° South 211 243 2,500 -840 Descending FlightAware ADS-B (KMCO)
08:42AM 28.5483 -81.2963 180° South 205 236 2,300 -900 Descending FlightAware ADS-B (KMCO)
08:42AM 28.5297 -81.2967 181° South 200 230 1,900 -1,200 Descending FlightAware ADS-B (KMCO)
08:43AM 28.4957 -81.2965 180° South 162 186 1,100 -1,020 Descending FlightAware ADS-B (KMCO)
08:44AM 28.4684 -81.2962 180° South 137 158 600 -720 Descending FlightAware ADS-B (KMCO)
08:44AM 28.4427 -81.2960 179° South 138 159 200 -660 Descending FlightAware ADS-B (KMCO)